RJTR(METAR)
10/16 17:58
METAR RJTR 160858Z AUTO 00000KT 10SM OVC041 16/11 A3023 RMK AO2 SLPNO
T01560106 52008 $=
戻る
トップページへ戻る
IMOC Co,.Ltd.